createdAt,value
2023-02-16T00:00:30.685Z,83.84
2023-02-16T00:02:57.965Z,83.58
2023-02-16T00:05:34.438Z,83.94
2023-02-16T00:08:01.768Z,84.03
2023-02-16T00:10:36.519Z,84.43
2023-02-16T00:13:41.183Z,84.91
2023-02-16T00:16:28.257Z,84.34
2023-02-16T00:18:54.805Z,84.15
2023-02-16T00:21:22.089Z,84.56
2023-02-16T00:23:48.863Z,84.81
2023-02-16T00:26:18.426Z,85.42
2023-02-16T00:28:45.468Z,85.68
2023-02-16T00:31:23.894Z,86.11
2023-02-16T00:33:50.581Z,86.48
2023-02-16T00:36:17.169Z,86.91
2023-02-16T00:38:43.804Z,87.29
2023-02-16T00:41:36.043Z,87.20
2023-02-16T00:44:02.519Z,87.51
2023-02-16T00:46:33.749Z,87.28
2023-02-16T00:49:04.069Z,87.58
2023-02-16T00:51:33.984Z,88.36
2023-02-16T00:54:02.601Z,88.41
2023-02-16T00:56:29.126Z,88.56
2023-02-16T00:58:55.798Z,88.91
2023-02-16T01:01:25.845Z,89.12
2023-02-16T01:03:52.607Z,89.47
2023-02-16T01:06:38.229Z,89.62
2023-02-16T01:09:35.556Z,90.16
2023-02-16T01:12:17.783Z,90.54
2023-02-16T01:14:47.649Z,90.86
2023-02-16T01:17:14.183Z,91.05
2023-02-16T01:19:40.735Z,90.97
2023-02-16T01:22:07.197Z,91.24
2023-02-16T01:24:33.717Z,91.67
2023-02-16T01:27:00.185Z,91.62
2023-02-16T01:29:26.657Z,91.78
2023-02-16T01:31:53.276Z,91.86
2023-02-16T01:34:22.443Z,92.26
2023-02-16T01:36:49.513Z,92.42
2023-02-16T01:39:18.670Z,92.86
2023-02-16T01:41:51.500Z,93.16
2023-02-16T01:44:36.378Z,93.68
2023-02-16T01:47:16.051Z,94.25
2023-02-16T01:49:45.905Z,94.49
2023-02-16T01:52:33.866Z,95.01
2023-02-16T01:55:07.298Z,94.94
2023-02-16T01:57:46.918Z,94.96
2023-02-16T02:00:41.170Z,95.25
2023-02-16T02:03:37.630Z,95.20
2023-02-16T02:06:04.786Z,95.38
2023-02-16T02:08:45.306Z,95.20
2023-02-16T02:11:20.818Z,94.81
2023-02-16T02:14:08.491Z,94.36
2023-02-16T02:16:35.444Z,93.89
2023-02-16T02:19:01.935Z,93.56
2023-02-16T02:22:02.399Z,93.30
2023-02-16T02:24:44.908Z,93.09
2023-02-16T02:27:34.714Z,92.75
2023-02-16T02:30:16.426Z,92.45
2023-02-16T02:33:13.628Z,91.76
2023-02-16T02:35:49.216Z,91.27
2023-02-16T02:38:27.716Z,90.98
2023-02-16T02:41:00.255Z,90.86
2023-02-16T02:43:38.837Z,90.81
2023-02-16T02:46:19.030Z,91.06
2023-02-16T02:48:45.528Z,91.08
2023-02-16T02:51:28.579Z,90.95
2023-02-16T02:54:19.265Z,90.74
2023-02-16T02:57:10.139Z,90.79
2023-02-16T02:59:58.984Z,90.45
2023-02-16T03:02:28.933Z,90.44
2023-02-16T03:04:57.824Z,90.51
2023-02-16T03:07:45.307Z,90.51
2023-02-16T03:10:31.954Z,90.51
2023-02-16T03:13:00.479Z,90.82
2023-02-16T03:15:28.971Z,91.35
2023-02-16T03:18:16.285Z,91.43
2023-02-16T03:21:04.449Z,91.41
2023-02-16T03:23:50.925Z,91.80
2023-02-16T03:26:38.014Z,92.01
2023-02-16T03:29:22.537Z,91.93
2023-02-16T03:31:51.639Z,92.17
2023-02-16T03:34:19.982Z,92.55
2023-02-16T03:36:51.623Z,92.56
2023-02-16T03:39:19.821Z,92.50
2023-02-16T03:41:50.175Z,92.95
2023-02-16T03:44:17.157Z,93.14
2023-02-16T03:46:47.229Z,93.35
2023-02-16T03:49:13.682Z,93.04
2023-02-16T03:51:40.288Z,93.47
2023-02-16T03:54:07.167Z,93.41
2023-02-16T03:56:33.668Z,93.39
2023-02-16T03:59:00.333Z,93.23
2023-02-16T04:01:26.796Z,92.82
2023-02-16T04:03:53.307Z,92.75
2023-02-16T04:06:19.874Z,92.42
2023-02-16T04:08:46.581Z,92.34
2023-02-16T04:11:31.481Z,91.89
2023-02-16T04:13:58.018Z,91.50
2023-02-16T04:16:24.554Z,91.21
2023-02-16T04:18:51.129Z,91.45
2023-02-16T04:21:17.575Z,91.64
2023-02-16T04:23:44.622Z,91.40
2023-02-16T04:26:11.070Z,91.21
2023-02-16T04:28:38.112Z,91.23
2023-02-16T04:31:05.102Z,91.33
2023-02-16T04:33:32.092Z,90.96
2023-02-16T04:36:01.667Z,90.63
2023-02-16T04:38:28.144Z,90.23
2023-02-16T04:40:54.617Z,89.91
2023-02-16T04:43:21.153Z,89.22
2023-02-16T04:45:47.741Z,89.34
2023-02-16T04:48:15.258Z,89.41
2023-02-16T04:50:41.784Z,89.37
2023-02-16T04:53:08.241Z,89.22
2023-02-16T04:55:34.757Z,88.89
2023-02-16T04:58:01.248Z,88.63
2023-02-16T05:00:27.707Z,88.42
2023-02-16T05:02:54.300Z,88.44
2023-02-16T05:05:20.827Z,88.37
2023-02-16T05:07:47.362Z,88.29
2023-02-16T05:10:13.823Z,88.57
2023-02-16T05:12:58.688Z,89.03
2023-02-16T05:15:25.200Z,90.16
2023-02-16T05:17:51.713Z,91.26
2023-02-16T05:20:18.333Z,92.11
2023-02-16T05:22:46.222Z,92.53
2023-02-16T05:25:13.060Z,93.36
2023-02-16T05:27:39.549Z,93.06
2023-02-16T05:30:07.354Z,93.18
2023-02-16T05:32:33.952Z,93.00
2023-02-16T05:35:00.451Z,92.11
2023-02-16T05:37:26.986Z,90.75
2023-02-16T05:39:53.486Z,90.13
2023-02-16T05:42:19.940Z,90.17
2023-02-16T05:44:46.463Z,90.18
2023-02-16T05:47:12.931Z,90.25
2023-02-16T05:49:39.421Z,89.34
2023-02-16T05:52:05.958Z,89.02
2023-02-16T05:54:34.565Z,89.19
2023-02-16T05:57:01.057Z,89.30
2023-02-16T05:59:27.612Z,89.51
2023-02-16T06:01:54.620Z,89.04
2023-02-16T06:04:22.079Z,87.89
2023-02-16T06:06:48.942Z,86.95
2023-02-16T06:09:15.547Z,86.14
2023-02-16T06:11:43.532Z,85.71
2023-02-16T06:14:13.522Z,86.03
2023-02-16T06:16:41.825Z,85.95
2023-02-16T06:19:09.434Z,84.97
2023-02-16T06:21:38.839Z,84.39
2023-02-16T06:24:06.497Z,84.27
2023-02-16T06:26:33.523Z,84.10
2023-02-16T06:29:02.967Z,84.57
2023-02-16T06:31:29.494Z,84.80
2023-02-16T06:33:59.733Z,84.73
2023-02-16T06:36:26.286Z,85.29
2023-02-16T06:38:52.968Z,85.46
2023-02-16T06:41:31.687Z,85.66
2023-02-16T06:43:59.991Z,85.63
2023-02-16T06:46:27.216Z,85.06
2023-02-16T06:48:54.314Z,84.59
2023-02-16T06:51:21.004Z,84.04
2023-02-16T06:53:47.845Z,84.09
2023-02-16T06:56:14.345Z,83.34
2023-02-16T06:58:41.061Z,82.04
2023-02-16T07:01:07.828Z,80.07
2023-02-16T07:03:35.367Z,79.75
2023-02-16T07:06:02.180Z,78.78
2023-02-16T07:08:28.818Z,78.42
2023-02-16T07:10:55.404Z,77.95
2023-02-16T07:13:22.010Z,77.53
2023-02-16T07:15:48.487Z,77.37
2023-02-16T07:18:14.988Z,76.68
2023-02-16T07:20:41.927Z,76.46
2023-02-16T07:23:08.438Z,76.02
2023-02-16T07:25:37.004Z,74.09
2023-02-16T07:28:04.310Z,73.96
2023-02-16T07:30:34.299Z,73.04
2023-02-16T07:33:00.798Z,72.32
2023-02-16T07:35:27.341Z,72.11
2023-02-16T07:37:53.951Z,71.93
2023-02-16T07:40:20.525Z,71.68
2023-02-16T07:42:47.023Z,71.47
2023-02-16T07:45:13.728Z,71.77
2023-02-16T07:47:40.188Z,71.15
2023-02-16T07:50:07.305Z,70.75
2023-02-16T07:52:34.567Z,70.18
2023-02-16T07:55:01.342Z,69.42
2023-02-16T07:57:29.080Z,68.57
2023-02-16T07:59:55.931Z,68.31
2023-02-16T08:02:23.416Z,68.21
2023-02-16T08:04:52.657Z,68.11
2023-02-16T08:07:19.871Z,67.07
2023-02-16T08:09:46.389Z,67.96
2023-02-16T08:12:14.327Z,67.40
2023-02-16T08:14:40.969Z,67.73
2023-02-16T08:17:08.159Z,66.88
2023-02-16T08:19:34.868Z,64.81
2023-02-16T08:22:02.496Z,64.36
2023-02-16T08:24:29.121Z,63.90
2023-02-16T08:26:55.921Z,63.49
2023-02-16T08:29:23.434Z,64.22
2023-02-16T08:31:50.586Z,64.88
2023-02-16T08:34:19.007Z,63.45
2023-02-16T08:36:47.664Z,63.14
2023-02-16T08:39:19.473Z,62.49
2023-02-16T08:41:48.780Z,62.74
2023-02-16T08:44:17.314Z,62.93
2023-02-16T08:46:45.858Z,62.16
2023-02-16T08:49:14.176Z,61.26
2023-02-16T08:51:43.348Z,61.63
2023-02-16T08:54:17.900Z,60.94
2023-02-16T08:56:47.060Z,60.89
2023-02-16T08:59:18.214Z,61.01
2023-02-16T09:01:45.163Z,61.84
2023-02-16T09:04:13.122Z,61.37
2023-02-16T09:06:41.966Z,61.28
2023-02-16T09:09:09.186Z,60.28
2023-02-16T09:11:36.206Z,60.28
2023-02-16T09:14:03.845Z,59.89
2023-02-16T09:16:34.704Z,59.73
2023-02-16T09:19:01.881Z,57.46
2023-02-16T09:21:33.071Z,56.36
2023-02-16T09:24:04.413Z,56.72
2023-02-16T09:26:34.143Z,56.90
2023-02-16T09:29:02.039Z,55.73
2023-02-16T09:31:32.565Z,56.56
2023-02-16T09:34:06.160Z,56.21
2023-02-16T09:36:32.731Z,56.10
2023-02-16T09:39:00.032Z,55.50
2023-02-16T09:41:35.764Z,55.96
2023-02-16T09:44:37.936Z,55.92
2023-02-16T09:47:11.535Z,56.25
2023-02-16T09:49:42.275Z,55.86
2023-02-16T09:52:10.215Z,54.62
2023-02-16T09:54:47.039Z,53.97
2023-02-16T09:57:31.779Z,55.54
2023-02-16T10:00:14.437Z,55.82
2023-02-16T10:03:00.619Z,55.96
2023-02-16T10:05:41.351Z,55.92
2023-02-16T10:08:11.892Z,55.37
2023-02-16T10:10:53.425Z,55.64
2023-02-16T10:13:34.774Z,55.95
2023-02-16T10:16:02.918Z,56.32
2023-02-16T10:18:40.103Z,55.78
2023-02-16T10:21:15.302Z,56.22
2023-02-16T10:23:50.041Z,56.18
2023-02-16T10:26:32.133Z,56.03
2023-02-16T10:29:11.126Z,56.23
2023-02-16T10:31:43.472Z,55.63
2023-02-16T10:34:28.931Z,55.27
2023-02-16T10:37:12.368Z,54.86
2023-02-16T10:39:46.321Z,55.32
2023-02-16T10:42:33.992Z,55.95
2023-02-16T10:45:33.433Z,54.32
2023-02-16T10:48:00.465Z,52.17
2023-02-16T10:50:40.076Z,52.51
2023-02-16T10:53:15.705Z,53.08
2023-02-16T10:55:42.392Z,52.55
2023-02-16T10:58:39.057Z,53.68
2023-02-16T11:01:34.814Z,51.72
2023-02-16T11:04:01.470Z,52.78
2023-02-16T11:06:29.054Z,53.51
2023-02-16T11:09:01.050Z,53.41
2023-02-16T11:11:28.781Z,53.76
2023-02-16T11:14:02.550Z,53.51
2023-02-16T11:16:29.848Z,54.78
2023-02-16T11:19:01.353Z,54.74
2023-02-16T11:21:50.252Z,55.15
2023-02-16T11:24:32.371Z,55.17
2023-02-16T11:27:04.497Z,56.13
2023-02-16T11:29:31.549Z,54.50
2023-02-16T11:31:59.476Z,53.98
2023-02-16T11:34:31.679Z,54.90
2023-02-16T11:37:05.173Z,56.53
2023-02-16T11:39:37.483Z,56.59
2023-02-16T11:42:08.828Z,56.24
2023-02-16T11:44:46.597Z,55.95
2023-02-16T11:47:33.555Z,55.33
2023-02-16T11:50:29.720Z,55.34
2023-02-16T11:53:23.010Z,54.61
2023-02-16T11:55:50.356Z,54.27
2023-02-16T11:58:19.308Z,54.80
2023-02-16T12:01:21.396Z,55.51
2023-02-16T12:04:09.613Z,54.67
2023-02-16T12:07:08.829Z,54.61
2023-02-16T12:10:02.779Z,53.88
2023-02-16T12:13:08.148Z,53.96
2023-02-16T12:16:15.672Z,53.69
2023-02-16T12:18:59.250Z,53.20
2023-02-16T12:21:48.228Z,53.41
2023-02-16T12:24:40.502Z,53.95
2023-02-16T12:27:22.060Z,53.75
2023-02-16T12:30:03.108Z,54.29
2023-02-16T12:33:14.317Z,54.64
2023-02-16T12:35:55.482Z,52.92
2023-02-16T12:38:30.986Z,53.90
2023-02-16T12:41:12.366Z,53.66
2023-02-16T12:43:45.085Z,53.75
2023-02-16T12:46:18.403Z,53.56
2023-02-16T12:48:50.726Z,53.39
2023-02-16T12:51:22.558Z,53.36
2023-02-16T12:54:04.563Z,53.16
2023-02-16T12:56:54.207Z,53.40
2023-02-16T12:59:33.736Z,53.01
2023-02-16T13:02:01.711Z,53.31
2023-02-16T13:04:37.217Z,53.88
2023-02-16T13:07:28.673Z,54.30
2023-02-16T13:10:00.058Z,54.66
2023-02-16T13:12:38.546Z,54.23
2023-02-16T13:15:20.573Z,55.19
2023-02-16T13:17:58.575Z,55.57
2023-02-16T13:20:25.282Z,55.85
2023-02-16T13:23:12.486Z,55.55
2023-02-16T13:26:10.817Z,56.16
2023-02-16T13:29:12.186Z,56.07
2023-02-16T13:32:22.519Z,56.23
2023-02-16T13:35:08.021Z,56.28
2023-02-16T13:37:37.455Z,56.23
2023-02-16T13:40:29.475Z,56.84
2023-02-16T13:43:23.402Z,56.84
2023-02-16T13:45:54.284Z,57.77
2023-02-16T13:48:53.438Z,58.35
2023-02-16T13:51:22.482Z,59.08
2023-02-16T13:54:02.910Z,59.89
2023-02-16T13:56:29.886Z,59.98
2023-02-16T13:59:00.545Z,60.22
2023-02-16T14:01:37.770Z,61.01
2023-02-16T14:04:24.702Z,60.82
2023-02-16T14:07:17.589Z,61.16
2023-02-16T14:09:49.092Z,61.58
2023-02-16T14:12:25.708Z,61.90
2023-02-16T14:14:52.767Z,61.46
2023-02-16T14:17:33.441Z,60.97
2023-02-16T14:20:09.060Z,60.69
2023-02-16T14:22:53.311Z,60.73
2023-02-16T14:25:19.691Z,60.86
2023-02-16T14:27:49.891Z,61.19
2023-02-16T14:30:36.266Z,61.63
2023-02-16T14:33:17.817Z,62.28
2023-02-16T14:35:59.613Z,62.27
2023-02-16T14:38:28.164Z,63.03
2023-02-16T14:40:57.212Z,63.06
2023-02-16T14:43:29.792Z,63.97
2023-02-16T14:46:14.598Z,64.00
2023-02-16T14:49:00.442Z,64.35
2023-02-16T14:51:42.554Z,64.76
2023-02-16T14:54:24.342Z,65.01
2023-02-16T14:57:17.716Z,65.12
2023-02-16T15:00:01.723Z,65.34
2023-02-16T15:02:35.598Z,65.68
2023-02-16T15:05:19.564Z,65.93
2023-02-16T15:07:52.072Z,65.81
2023-02-16T15:10:27.581Z,65.73
2023-02-16T15:12:55.911Z,66.37
2023-02-16T15:15:49.012Z,66.71
2023-02-16T15:18:19.687Z,66.99
2023-02-16T15:20:51.189Z,67.28
2023-02-16T15:23:21.535Z,67.84
2023-02-16T15:25:58.967Z,67.54
2023-02-16T15:28:35.808Z,67.92
2023-02-16T15:31:08.662Z,67.96
2023-02-16T15:33:38.386Z,68.35
2023-02-16T15:36:12.068Z,68.88
2023-02-16T15:38:54.365Z,69.13
2023-02-16T15:41:34.282Z,69.31
2023-02-16T15:44:02.662Z,69.48
2023-02-16T15:46:39.748Z,69.78
2023-02-16T15:49:21.378Z,70.60
2023-02-16T15:51:49.285Z,70.79
2023-02-16T15:54:27.961Z,71.18
2023-02-16T15:56:56.865Z,71.31
2023-02-16T15:59:37.568Z,71.48
2023-02-16T16:02:10.961Z,72.68
2023-02-16T16:04:41.057Z,73.85
2023-02-16T16:07:15.984Z,74.24
2023-02-16T16:09:43.823Z,74.71
2023-02-16T16:12:14.246Z,75.83
2023-02-16T16:14:51.843Z,76.74
2023-02-16T16:17:24.748Z,78.24
2023-02-16T16:19:51.405Z,79.60
2023-02-16T16:22:27.023Z,81.12
2023-02-16T16:24:53.512Z,81.99
2023-02-16T16:27:29.772Z,83.24
2023-02-16T16:30:27.550Z,84.16
2023-02-16T16:33:10.277Z,83.83
2023-02-16T16:35:46.336Z,84.14
2023-02-16T16:38:37.783Z,84.66
2023-02-16T16:41:04.975Z,84.45
2023-02-16T16:43:56.916Z,85.03
2023-02-16T16:46:29.275Z,85.07
2023-02-16T16:49:03.335Z,85.35
2023-02-16T16:51:32.854Z,84.89
2023-02-16T16:54:01.684Z,85.15
2023-02-16T16:56:29.584Z,84.77
2023-02-16T16:59:00.049Z,84.80
2023-02-16T17:01:28.165Z,84.94
2023-02-16T17:03:54.758Z,84.54
2023-02-16T17:06:22.444Z,84.97
2023-02-16T17:08:49.082Z,84.91
2023-02-16T17:11:27.751Z,85.43
2023-02-16T17:13:55.809Z,85.44
2023-02-16T17:16:43.393Z,85.52
2023-02-16T17:19:13.215Z,85.84
2023-02-16T17:21:39.902Z,86.08
2023-02-16T17:24:07.359Z,86.25
2023-02-16T17:26:34.302Z,86.54
2023-02-16T17:29:00.809Z,86.59
2023-02-16T17:31:27.561Z,87.15
2023-02-16T17:33:54.144Z,86.74
2023-02-16T17:36:22.742Z,87.26
2023-02-16T17:38:49.275Z,87.26
2023-02-16T17:41:25.167Z,87.87
2023-02-16T17:43:52.075Z,87.91
2023-02-16T17:46:20.028Z,88.57
2023-02-16T17:48:53.832Z,89.23
2023-02-16T17:51:21.685Z,89.33
2023-02-16T17:53:48.275Z,89.63
2023-02-16T17:56:18.026Z,90.05
2023-02-16T17:58:44.675Z,89.64
2023-02-16T18:01:14.699Z,90.03
2023-02-16T18:03:42.061Z,90.04
2023-02-16T18:06:13.005Z,90.14
2023-02-16T18:08:39.465Z,90.65
2023-02-16T18:11:09.130Z,90.90
2023-02-16T18:13:35.917Z,91.18
2023-02-16T18:16:07.126Z,91.71
2023-02-16T18:18:36.709Z,92.12
2023-02-16T18:21:03.564Z,92.39
2023-02-16T18:23:30.041Z,93.30
2023-02-16T18:25:56.692Z,93.38
2023-02-16T18:28:27.938Z,94.02
2023-02-16T18:30:54.509Z,93.83
2023-02-16T18:33:22.115Z,94.38
2023-02-16T18:35:51.568Z,94.94
2023-02-16T18:38:21.366Z,95.26
2023-02-16T18:40:48.880Z,95.68
2023-02-16T18:43:15.451Z,95.60
2023-02-16T18:45:42.434Z,95.92
2023-02-16T18:48:09.033Z,96.36
2023-02-16T18:50:35.532Z,96.42
2023-02-16T18:53:02.024Z,96.47
2023-02-16T18:55:32.832Z,96.73
2023-02-16T18:58:00.842Z,96.79
2023-02-16T19:00:28.138Z,97.47
2023-02-16T19:02:55.357Z,97.38
2023-02-16T19:05:21.865Z,97.26
2023-02-16T19:07:48.482Z,97.66
2023-02-16T19:10:15.498Z,97.62
2023-02-16T19:12:41.958Z,97.59
2023-02-16T19:15:09.175Z,97.80
2023-02-16T19:17:36.424Z,97.92
2023-02-16T19:20:02.946Z,97.85
2023-02-16T19:22:29.446Z,97.80
2023-02-16T19:24:55.914Z,97.45
2023-02-16T19:27:22.386Z,97.28
2023-02-16T19:29:48.854Z,97.66
2023-02-16T19:32:15.405Z,97.68
2023-02-16T19:34:41.964Z,97.53
2023-02-16T19:37:08.506Z,97.79
2023-02-16T19:39:37.888Z,97.69
2023-02-16T19:42:04.575Z,97.28
2023-02-16T19:44:31.023Z,97.21
2023-02-16T19:46:57.608Z,96.94
2023-02-16T19:49:24.075Z,96.51
2023-02-16T19:51:50.599Z,96.44
2023-02-16T19:54:17.050Z,96.41
2023-02-16T19:56:43.514Z,96.32
2023-02-16T19:59:10.160Z,96.14
2023-02-16T20:01:36.934Z,96.60
2023-02-16T20:04:03.976Z,96.35
2023-02-16T20:06:40.371Z,96.17
2023-02-16T20:09:07.228Z,95.68
2023-02-16T20:11:34.447Z,95.75
2023-02-16T20:14:01.954Z,95.78
2023-02-16T20:16:28.529Z,95.69
2023-02-16T20:18:55.443Z,95.45
2023-02-16T20:21:25.027Z,95.67
2023-02-16T20:23:55.002Z,95.77
2023-02-16T20:26:30.603Z,95.25
2023-02-16T20:28:58.386Z,95.18
2023-02-16T20:31:31.436Z,95.31
2023-02-16T20:33:58.425Z,95.62
2023-02-16T20:36:24.937Z,96.25
2023-02-16T20:38:51.520Z,97.48
2023-02-16T20:41:19.002Z,98.47
2023-02-16T20:43:46.067Z,98.73
2023-02-16T20:46:14.091Z,98.71
2023-02-16T20:48:40.714Z,98.90
2023-02-16T20:51:10.144Z,98.41
2023-02-16T20:53:36.669Z,98.31
2023-02-16T20:56:20.047Z,97.64
2023-02-16T20:58:47.912Z,97.47
2023-02-16T21:01:18.815Z,97.53
2023-02-16T21:03:45.439Z,97.12
2023-02-16T21:06:14.902Z,96.71
2023-02-16T21:08:41.366Z,96.22
2023-02-16T21:11:08.020Z,95.74
2023-02-16T21:13:34.558Z,95.80
2023-02-16T21:16:01.073Z,95.79
2023-02-16T21:18:27.731Z,95.62
2023-02-16T21:20:54.279Z,95.56
2023-02-16T21:23:20.751Z,95.30
2023-02-16T21:25:47.581Z,95.48
2023-02-16T21:28:14.316Z,95.55
2023-02-16T21:30:41.765Z,95.51
2023-02-16T21:33:08.234Z,95.58
2023-02-16T21:35:34.739Z,95.46
2023-02-16T21:38:04.627Z,95.51
2023-02-16T21:40:49.727Z,95.26
2023-02-16T21:43:17.209Z,95.18
2023-02-16T21:45:43.713Z,95.28
2023-02-16T21:48:29.918Z,95.31
2023-02-16T21:50:59.500Z,95.67
2023-02-16T21:53:25.972Z,95.93
2023-02-16T21:56:10.891Z,96.13
2023-02-16T21:58:39.084Z,95.86
2023-02-16T22:01:05.631Z,96.24
2023-02-16T22:03:32.213Z,95.81
2023-02-16T22:06:03.900Z,96.26
2023-02-16T22:08:32.218Z,96.19
2023-02-16T22:11:16.275Z,96.53
2023-02-16T22:13:42.854Z,96.48
2023-02-16T22:16:13.778Z,97.11
2023-02-16T22:18:40.885Z,97.37
2023-02-16T22:21:07.947Z,97.57
2023-02-16T22:23:35.296Z,97.92
2023-02-16T22:26:03.216Z,98.26
2023-02-16T22:28:30.209Z,98.76
2023-02-16T22:31:09.309Z,98.96
2023-02-16T22:33:40.774Z,99.83
2023-02-16T22:36:11.705Z,100.00
2023-02-16T22:38:38.244Z,100.00
2023-02-16T22:41:06.726Z,100.00
2023-02-16T22:43:33.271Z,100.00
2023-02-16T22:46:00.112Z,100.00
2023-02-16T22:48:26.700Z,100.00
2023-02-16T22:50:58.944Z,100.00
2023-02-16T22:53:29.439Z,100.00
2023-02-16T22:55:58.305Z,100.00
2023-02-16T22:58:27.785Z,100.00
2023-02-16T23:00:55.531Z,100.00
2023-02-16T23:03:22.235Z,100.00
2023-02-16T23:05:49.076Z,100.00
2023-02-16T23:08:15.680Z,100.00
2023-02-16T23:10:59.754Z,100.00
2023-02-16T23:13:28.516Z,100.00
2023-02-16T23:16:11.521Z,100.00
2023-02-16T23:18:42.239Z,100.00
2023-02-16T23:21:13.928Z,100.00
2023-02-16T23:23:40.498Z,100.00
2023-02-16T23:26:08.267Z,100.00
2023-02-16T23:28:39.362Z,100.00
2023-02-16T23:31:06.190Z,100.00
2023-02-16T23:33:33.373Z,100.00
2023-02-16T23:36:03.039Z,100.00
2023-02-16T23:38:30.682Z,100.00
2023-02-16T23:41:05.556Z,100.00
2023-02-16T23:43:32.886Z,100.00
2023-02-16T23:46:02.912Z,100.00
2023-02-16T23:48:29.991Z,100.00
2023-02-16T23:50:57.462Z,100.00
2023-02-16T23:53:28.040Z,100.00
2023-02-16T23:56:07.895Z,100.00
2023-02-16T23:58:45.048Z,100.00
